createdAt,value
2022-07-29T00:00:27.297Z,18.92
2022-07-29T00:01:27.313Z,18.94
2022-07-29T00:02:27.450Z,18.94
2022-07-29T00:03:27.310Z,18.95
2022-07-29T00:04:27.471Z,18.95
2022-07-29T00:05:27.270Z,18.95
2022-07-29T00:06:27.259Z,18.95
2022-07-29T00:07:27.456Z,18.95
2022-07-29T00:08:27.181Z,18.95
2022-07-29T00:09:27.219Z,18.95
2022-07-29T00:10:27.230Z,18.94
2022-07-29T00:11:27.189Z,18.92
2022-07-29T00:12:27.284Z,18.92
2022-07-29T00:13:32.179Z,18.87
2022-07-29T00:14:27.181Z,18.87
2022-07-29T00:15:27.221Z,18.86
2022-07-29T00:16:27.164Z,18.84
2022-07-29T00:17:27.303Z,18.84
2022-07-29T00:18:27.100Z,18.84
2022-07-29T00:19:27.054Z,18.83
2022-07-29T00:20:27.116Z,18.79
2022-07-29T00:21:27.102Z,18.79
2022-07-29T00:22:27.074Z,18.79
2022-07-29T00:23:27.027Z,18.79
2022-07-29T00:24:27.130Z,18.77
2022-07-29T00:25:27.016Z,18.77
2022-07-29T00:26:27.050Z,18.77
2022-07-29T00:27:27.150Z,18.77
2022-07-29T00:28:27.005Z,18.76
2022-07-29T00:29:35.101Z,18.76
2022-07-29T00:30:27.013Z,18.76
2022-07-29T00:31:26.978Z,18.74
2022-07-29T00:32:26.964Z,18.73
2022-07-29T00:33:27.133Z,18.72
2022-07-29T00:34:27.089Z,18.70
2022-07-29T00:35:26.964Z,18.68
2022-07-29T00:36:27.007Z,18.67
2022-07-29T00:37:26.885Z,18.64
2022-07-29T00:38:27.046Z,18.62
2022-07-29T00:39:26.920Z,18.62
2022-07-29T00:40:26.940Z,18.59
2022-07-29T00:41:26.852Z,18.57
2022-07-29T00:42:26.892Z,18.58
2022-07-29T00:43:26.809Z,18.55
2022-07-29T00:44:27.088Z,18.55
2022-07-29T00:45:26.817Z,18.54
2022-07-29T00:46:27.100Z,18.50
2022-07-29T00:47:26.881Z,18.49
2022-07-29T00:48:26.845Z,18.46
2022-07-29T00:49:27.039Z,18.46
2022-07-29T00:50:26.812Z,18.44
2022-07-29T00:51:26.853Z,18.43
2022-07-29T00:52:26.854Z,18.42
2022-07-29T00:53:26.925Z,18.42
2022-07-29T00:54:26.764Z,18.40
2022-07-29T00:55:26.733Z,18.37
2022-07-29T00:56:26.805Z,18.37
2022-07-29T00:57:26.683Z,18.37
2022-07-29T00:58:26.766Z,18.36
2022-07-29T00:59:26.803Z,18.36
2022-07-29T01:00:26.810Z,18.37
2022-07-29T01:01:26.826Z,18.34
2022-07-29T01:02:26.744Z,18.33
2022-07-29T01:03:26.675Z,18.33
2022-07-29T01:04:26.677Z,18.31
2022-07-29T01:05:50.576Z,18.33
2022-07-29T01:06:26.663Z,18.33
2022-07-29T01:07:26.665Z,18.33
2022-07-29T01:08:26.662Z,18.36
2022-07-29T01:09:34.476Z,18.36
2022-07-29T01:10:26.591Z,18.34
2022-07-29T01:11:26.672Z,18.33
2022-07-29T01:12:26.513Z,18.31
2022-07-29T01:13:26.709Z,18.33
2022-07-29T01:14:26.591Z,18.29
2022-07-29T01:15:26.689Z,18.29
2022-07-29T01:16:26.569Z,18.27
2022-07-29T01:17:26.508Z,18.27
2022-07-29T01:18:26.671Z,18.22
2022-07-29T01:19:26.435Z,18.22
2022-07-29T01:20:31.470Z,18.18
2022-07-29T01:21:26.508Z,18.18
2022-07-29T01:22:26.488Z,18.15
2022-07-29T01:23:26.467Z,18.13
2022-07-29T01:24:26.586Z,18.13
2022-07-29T01:25:26.433Z,18.15
2022-07-29T01:26:26.388Z,18.12
2022-07-29T01:27:26.368Z,18.12
2022-07-29T01:28:26.546Z,18.10
2022-07-29T01:29:26.350Z,18.13
2022-07-29T01:30:26.398Z,18.12
2022-07-29T01:31:26.763Z,18.13
2022-07-29T01:32:28.927Z,18.12
2022-07-29T01:33:26.380Z,18.13
2022-07-29T01:34:26.429Z,18.15
2022-07-29T01:35:26.319Z,18.12
2022-07-29T01:36:26.281Z,18.13
2022-07-29T01:37:26.323Z,18.10
2022-07-29T01:38:26.341Z,18.10
2022-07-29T01:39:26.317Z,18.10
2022-07-29T01:40:26.309Z,18.09
2022-07-29T01:41:26.231Z,18.10
2022-07-29T01:42:26.639Z,18.09
2022-07-29T01:43:26.227Z,18.07
2022-07-29T01:44:26.279Z,18.06
2022-07-29T01:45:26.228Z,18.04
2022-07-29T01:46:26.620Z,18.04
2022-07-29T01:47:26.316Z,18.03
2022-07-29T01:48:26.225Z,18.02
2022-07-29T01:49:26.263Z,18.00
2022-07-29T01:50:26.237Z,18.00
2022-07-29T01:51:26.150Z,18.00
2022-07-29T01:52:26.260Z,17.99
2022-07-29T01:53:26.298Z,17.95
2022-07-29T01:54:26.150Z,17.95
2022-07-29T01:55:26.499Z,17.94
2022-07-29T01:56:26.150Z,17.95
2022-07-29T01:57:26.040Z,17.94
2022-07-29T01:58:26.203Z,17.94
2022-07-29T01:59:26.118Z,17.94
2022-07-29T02:00:26.067Z,17.94
2022-07-29T02:01:26.148Z,17.95
2022-07-29T02:02:26.065Z,17.97
2022-07-29T02:03:26.070Z,17.97
2022-07-29T02:04:28.886Z,17.97
2022-07-29T02:05:26.106Z,17.99
2022-07-29T02:06:26.028Z,17.99
2022-07-29T02:07:25.949Z,17.99
2022-07-29T02:08:26.028Z,17.99
2022-07-29T02:09:25.996Z,17.97
2022-07-29T02:10:26.319Z,17.95
2022-07-29T02:11:25.950Z,17.97
2022-07-29T02:12:25.948Z,17.97
2022-07-29T02:13:25.911Z,17.97
2022-07-29T02:14:25.986Z,17.99
2022-07-29T02:15:25.870Z,18.00
2022-07-29T02:16:26.099Z,17.99
2022-07-29T02:17:25.891Z,17.99
2022-07-29T02:18:25.866Z,18.00
2022-07-29T02:19:25.877Z,17.99
2022-07-29T02:20:25.877Z,17.99
2022-07-29T02:21:25.829Z,17.97
2022-07-29T02:22:25.838Z,17.99
2022-07-29T02:23:25.869Z,17.99
2022-07-29T02:24:25.834Z,17.95
2022-07-29T02:25:25.759Z,17.94
2022-07-29T02:26:25.908Z,17.92
2022-07-29T02:27:25.796Z,17.89
2022-07-29T02:28:25.824Z,17.89
2022-07-29T02:29:25.713Z,17.87
2022-07-29T02:30:25.792Z,17.84
2022-07-29T02:31:25.787Z,17.82
2022-07-29T02:32:26.000Z,17.81
2022-07-29T02:33:25.748Z,17.79
2022-07-29T02:34:25.747Z,17.76
2022-07-29T02:35:25.717Z,17.76
2022-07-29T02:36:25.670Z,17.73
2022-07-29T02:37:25.659Z,17.71
2022-07-29T02:38:25.625Z,17.69
2022-07-29T02:39:25.626Z,17.67
2022-07-29T02:40:25.713Z,17.69
2022-07-29T02:41:25.667Z,17.66
2022-07-29T02:42:25.737Z,17.66
2022-07-29T02:43:25.672Z,17.66
2022-07-29T02:44:25.636Z,17.66
2022-07-29T02:45:25.626Z,17.67
2022-07-29T02:46:29.188Z,17.66
2022-07-29T02:47:25.635Z,17.66
2022-07-29T02:48:25.628Z,17.64
2022-07-29T02:49:25.754Z,17.64
2022-07-29T02:50:25.507Z,17.64
2022-07-29T02:51:43.625Z,17.66
2022-07-29T02:52:25.628Z,17.64
2022-07-29T02:53:25.710Z,17.64
2022-07-29T02:54:25.518Z,17.64
2022-07-29T02:55:25.508Z,17.64
2022-07-29T02:56:25.519Z,17.63
2022-07-29T02:57:25.448Z,17.64
2022-07-29T02:58:25.616Z,17.66
2022-07-29T02:59:25.417Z,17.67
2022-07-29T03:00:25.425Z,17.67
2022-07-29T03:01:25.622Z,17.67
2022-07-29T03:02:25.573Z,17.67
2022-07-29T03:03:25.529Z,17.67
2022-07-29T03:04:25.675Z,17.66
2022-07-29T03:05:25.391Z,17.64
2022-07-29T03:06:37.559Z,17.66
2022-07-29T03:07:25.335Z,17.64
2022-07-29T03:08:25.427Z,17.64
2022-07-29T03:09:25.313Z,17.63
2022-07-29T03:10:25.527Z,17.66
2022-07-29T03:11:46.024Z,17.64
2022-07-29T03:12:25.466Z,17.66
2022-07-29T03:13:25.347Z,17.66
2022-07-29T03:14:25.313Z,17.64
2022-07-29T03:15:25.269Z,17.66
2022-07-29T03:16:25.556Z,17.66
2022-07-29T03:17:25.461Z,17.66
2022-07-29T03:18:25.316Z,17.66
2022-07-29T03:19:25.313Z,17.67
2022-07-29T03:20:25.267Z,17.66
2022-07-29T03:21:25.315Z,17.64
2022-07-29T03:22:25.471Z,17.64
2022-07-29T03:23:25.317Z,17.64
2022-07-29T03:24:25.268Z,17.64
2022-07-29T03:25:25.278Z,17.64
2022-07-29T03:26:25.225Z,17.64
2022-07-29T03:27:25.228Z,17.64
2022-07-29T03:28:26.932Z,17.62
2022-07-29T03:29:25.188Z,17.57
2022-07-29T03:30:25.148Z,17.53
2022-07-29T03:31:25.225Z,17.48
2022-07-29T03:32:25.360Z,17.46
2022-07-29T03:33:25.113Z,17.41
2022-07-29T03:34:25.107Z,17.36
2022-07-29T03:35:25.269Z,17.33
2022-07-29T03:36:25.222Z,17.30
2022-07-29T03:37:25.073Z,17.30
2022-07-29T03:38:25.078Z,17.29
2022-07-29T03:39:25.231Z,17.29
2022-07-29T03:40:25.095Z,17.29
2022-07-29T03:41:25.160Z,17.28
2022-07-29T03:42:25.032Z,17.28
2022-07-29T03:43:25.040Z,17.28
2022-07-29T03:44:25.034Z,17.26
2022-07-29T03:45:25.197Z,17.26
2022-07-29T03:46:25.141Z,17.26
2022-07-29T03:47:27.024Z,17.22
2022-07-29T03:48:24.989Z,17.23
2022-07-29T03:49:25.060Z,17.23
2022-07-29T03:50:24.909Z,17.25
2022-07-29T03:51:33.947Z,17.25
2022-07-29T03:52:24.948Z,17.25
2022-07-29T03:53:24.910Z,17.25
2022-07-29T03:54:24.909Z,17.28
2022-07-29T03:55:24.868Z,17.26
2022-07-29T03:56:24.869Z,17.28
2022-07-29T03:57:24.859Z,17.30
2022-07-29T03:58:25.016Z,17.30
2022-07-29T03:59:24.822Z,17.33
2022-07-29T04:00:24.811Z,17.33
2022-07-29T04:01:25.067Z,17.35
2022-07-29T04:02:30.220Z,17.32
2022-07-29T04:03:24.943Z,17.35
2022-07-29T04:04:24.840Z,17.33
2022-07-29T04:05:24.757Z,17.32
2022-07-29T04:06:25.092Z,17.30
2022-07-29T04:07:24.853Z,17.30
2022-07-29T04:08:24.945Z,17.29
2022-07-29T04:09:24.892Z,17.30
2022-07-29T04:10:30.455Z,17.32
2022-07-29T04:11:24.887Z,17.32
2022-07-29T04:12:24.711Z,17.30
2022-07-29T04:13:24.859Z,17.32
2022-07-29T04:14:24.690Z,17.32
2022-07-29T04:15:24.680Z,17.32
2022-07-29T04:16:24.793Z,17.32
2022-07-29T04:17:24.772Z,17.32
2022-07-29T04:18:24.709Z,17.30
2022-07-29T04:19:24.723Z,17.30
2022-07-29T04:20:24.654Z,17.30
2022-07-29T04:21:24.655Z,17.29
2022-07-29T04:22:24.695Z,17.28
2022-07-29T04:23:24.737Z,17.28
2022-07-29T04:24:24.576Z,17.28
2022-07-29T04:25:24.732Z,17.28
2022-07-29T04:26:24.863Z,17.26
2022-07-29T04:27:24.548Z,17.25
2022-07-29T04:28:24.652Z,17.25
2022-07-29T04:29:24.608Z,17.25
2022-07-29T04:30:24.534Z,17.23
2022-07-29T04:31:26.033Z,17.22
2022-07-29T04:32:24.536Z,17.23
2022-07-29T04:33:25.063Z,17.25
2022-07-29T04:34:28.028Z,17.20
2022-07-29T04:35:24.502Z,17.18
2022-07-29T04:36:28.795Z,17.15
2022-07-29T04:37:24.677Z,17.11
2022-07-29T04:38:24.419Z,17.10
2022-07-29T04:39:24.625Z,17.10
2022-07-29T04:40:24.453Z,17.07
2022-07-29T04:41:32.866Z,17.07
2022-07-29T04:42:27.741Z,17.06
2022-07-29T04:43:24.373Z,17.07
2022-07-29T04:44:27.655Z,17.06
2022-07-29T04:45:24.373Z,17.03
2022-07-29T04:46:24.549Z,17.00
2022-07-29T04:47:24.750Z,17.00
2022-07-29T04:48:28.667Z,17.03
2022-07-29T04:49:24.422Z,17.04
2022-07-29T04:50:24.459Z,17.03
2022-07-29T04:51:24.335Z,17.03
2022-07-29T04:52:24.590Z,17.00
2022-07-29T04:53:24.341Z,16.99
2022-07-29T04:54:24.300Z,16.98
2022-07-29T04:55:24.496Z,16.96
2022-07-29T04:56:24.341Z,16.96
2022-07-29T04:57:24.300Z,16.92
2022-07-29T04:58:24.509Z,16.90
2022-07-29T04:59:24.263Z,16.88
2022-07-29T05:00:24.226Z,16.86
2022-07-29T05:01:24.300Z,16.83
2022-07-29T05:02:24.290Z,16.83
2022-07-29T05:03:24.202Z,16.83
2022-07-29T05:04:24.203Z,16.81
2022-07-29T05:05:24.199Z,16.81
2022-07-29T05:06:24.321Z,16.83
2022-07-29T05:07:24.217Z,16.81
2022-07-29T05:08:24.185Z,16.80
2022-07-29T05:09:24.145Z,16.78
2022-07-29T05:10:24.149Z,16.80
2022-07-29T05:11:28.621Z,16.78
2022-07-29T05:12:24.064Z,16.77
2022-07-29T05:13:24.279Z,16.78
2022-07-29T05:14:24.181Z,16.78
2022-07-29T05:15:24.361Z,16.80
2022-07-29T05:16:24.241Z,16.78
2022-07-29T05:17:24.031Z,16.78
2022-07-29T05:18:25.937Z,16.77
2022-07-29T05:19:24.093Z,16.78
2022-07-29T05:20:24.028Z,16.75
2022-07-29T05:21:23.986Z,16.77
2022-07-29T05:22:24.091Z,16.77
2022-07-29T05:23:24.053Z,16.75
2022-07-29T05:24:24.011Z,16.74
2022-07-29T05:25:23.933Z,16.74
2022-07-29T05:26:24.029Z,16.75
2022-07-29T05:27:24.023Z,16.74
2022-07-29T05:28:24.021Z,16.71
2022-07-29T05:29:42.804Z,16.70
2022-07-29T05:30:23.903Z,16.68
2022-07-29T05:31:23.981Z,16.70
2022-07-29T05:32:23.933Z,16.68
2022-07-29T05:33:35.296Z,16.70
2022-07-29T05:34:23.894Z,16.68
2022-07-29T05:35:23.894Z,16.68
2022-07-29T05:36:23.899Z,16.71
2022-07-29T05:37:23.816Z,16.70
2022-07-29T05:38:23.813Z,16.70
2022-07-29T05:39:47.215Z,16.70
2022-07-29T05:40:23.862Z,16.68
2022-07-29T05:41:23.774Z,16.68
2022-07-29T05:42:23.807Z,16.68
2022-07-29T05:43:23.775Z,16.70
2022-07-29T05:44:25.291Z,16.70
2022-07-29T05:45:23.788Z,16.73
2022-07-29T05:46:23.944Z,16.74
2022-07-29T05:47:23.820Z,16.77
2022-07-29T05:48:23.946Z,16.77
2022-07-29T05:49:27.292Z,16.80
2022-07-29T05:50:23.767Z,16.78
2022-07-29T05:51:23.734Z,16.77
2022-07-29T05:52:23.706Z,16.74
2022-07-29T05:53:23.670Z,16.71
2022-07-29T05:54:23.725Z,16.68
2022-07-29T05:55:23.742Z,16.59
2022-07-29T05:56:23.722Z,16.53
2022-07-29T05:57:23.670Z,16.48
2022-07-29T05:58:23.819Z,16.38
2022-07-29T05:59:28.334Z,16.31
2022-07-29T06:00:23.633Z,16.23
2022-07-29T06:01:23.643Z,16.16
2022-07-29T06:02:23.621Z,16.09
2022-07-29T06:03:23.638Z,16.00
2022-07-29T06:04:23.669Z,15.88
2022-07-29T06:05:23.588Z,15.75
2022-07-29T06:06:23.539Z,15.68
2022-07-29T06:07:23.541Z,15.61
2022-07-29T06:08:23.508Z,15.57
2022-07-29T06:09:23.964Z,15.54
2022-07-29T06:10:26.307Z,15.52
2022-07-29T06:11:23.660Z,15.54
2022-07-29T06:12:23.506Z,15.56
2022-07-29T06:13:23.451Z,15.57
2022-07-29T06:14:23.580Z,15.59
2022-07-29T06:15:23.547Z,15.60
2022-07-29T06:16:29.688Z,15.61
2022-07-29T06:17:23.547Z,15.64
2022-07-29T06:18:23.427Z,15.68
2022-07-29T06:19:23.461Z,15.72
2022-07-29T06:20:26.856Z,15.68
2022-07-29T06:21:23.424Z,15.70
2022-07-29T06:22:23.438Z,15.64
2022-07-29T06:23:23.826Z,15.63
2022-07-29T06:24:23.381Z,15.61
2022-07-29T06:25:23.380Z,15.63
2022-07-29T06:26:31.451Z,15.61
2022-07-29T06:27:23.346Z,15.61
2022-07-29T06:28:23.538Z,15.60
2022-07-29T06:29:23.261Z,15.61
2022-07-29T06:30:23.306Z,15.61
2022-07-29T06:31:23.335Z,15.59
2022-07-29T06:32:23.257Z,15.56
2022-07-29T06:33:23.299Z,15.49
2022-07-29T06:34:23.414Z,15.43
2022-07-29T06:35:41.740Z,15.42
2022-07-29T06:36:25.108Z,15.41
2022-07-29T06:37:23.225Z,15.41
2022-07-29T06:38:31.217Z,15.42
2022-07-29T06:39:23.343Z,15.43
2022-07-29T06:40:23.227Z,15.49
2022-07-29T06:41:23.225Z,15.51
2022-07-29T06:42:23.179Z,15.56
2022-07-29T06:43:23.258Z,15.60
2022-07-29T06:44:23.155Z,15.64
2022-07-29T06:45:23.156Z,15.68
2022-07-29T06:46:23.507Z,15.75
2022-07-29T06:47:23.138Z,15.79
2022-07-29T06:48:23.101Z,15.84
2022-07-29T06:49:23.323Z,15.86
2022-07-29T06:50:23.139Z,15.93
2022-07-29T06:51:24.026Z,16.00
2022-07-29T06:52:23.144Z,16.04
2022-07-29T06:53:23.068Z,16.07
2022-07-29T06:54:23.233Z,16.12
2022-07-29T06:55:24.652Z,16.16
2022-07-29T06:56:23.035Z,16.22
2022-07-29T06:57:23.034Z,16.27
2022-07-29T06:58:23.236Z,16.34
2022-07-29T06:59:32.049Z,16.38
2022-07-29T07:00:22.987Z,16.44
2022-07-29T07:01:23.222Z,16.49
2022-07-29T07:02:23.126Z,16.53
2022-07-29T07:03:22.979Z,16.59
2022-07-29T07:04:23.017Z,16.56
2022-07-29T07:05:22.946Z,16.56
2022-07-29T07:06:23.058Z,16.60
2022-07-29T07:07:23.189Z,16.63
2022-07-29T07:08:22.950Z,16.67
2022-07-29T07:09:23.177Z,16.70
2022-07-29T07:10:23.177Z,16.74
2022-07-29T07:11:23.138Z,16.77
2022-07-29T07:12:22.986Z,16.81
2022-07-29T07:13:23.104Z,16.83
2022-07-29T07:14:22.939Z,16.86
2022-07-29T07:15:22.830Z,16.88
2022-07-29T07:16:23.000Z,16.89
2022-07-29T07:17:22.819Z,16.89
2022-07-29T07:18:22.973Z,16.90
2022-07-29T07:19:22.862Z,16.92
2022-07-29T07:20:22.852Z,16.90
2022-07-29T07:21:23.139Z,16.93
2022-07-29T07:22:22.896Z,16.92
2022-07-29T07:23:22.859Z,16.90
2022-07-29T07:24:22.899Z,16.89
2022-07-29T07:25:22.906Z,16.88
2022-07-29T07:26:22.787Z,16.89
2022-07-29T07:27:22.748Z,16.89
2022-07-29T07:28:24.494Z,16.89
2022-07-29T07:29:22.709Z,16.93
2022-07-29T07:30:22.755Z,16.93
2022-07-29T07:31:23.101Z,16.96
2022-07-29T07:32:22.780Z,16.98
2022-07-29T07:33:22.660Z,16.95
2022-07-29T07:34:28.365Z,16.95
2022-07-29T07:35:22.707Z,16.95
2022-07-29T07:36:23.440Z,16.93
2022-07-29T07:37:22.712Z,16.93
2022-07-29T07:38:22.695Z,16.93
2022-07-29T07:39:22.553Z,16.96
2022-07-29T07:40:22.961Z,16.96
2022-07-29T07:41:22.575Z,16.98
2022-07-29T07:42:22.605Z,16.98
2022-07-29T07:43:22.538Z,16.99
2022-07-29T07:44:23.513Z,17.03
2022-07-29T07:45:22.644Z,17.04
2022-07-29T07:46:22.638Z,17.08
2022-07-29T07:47:22.577Z,17.08
2022-07-29T07:48:22.436Z,17.10
2022-07-29T07:49:22.610Z,17.11
2022-07-29T07:50:22.757Z,17.14
2022-07-29T07:51:22.466Z,17.18
2022-07-29T07:52:22.610Z,17.22
2022-07-29T07:53:22.557Z,17.18
2022-07-29T07:54:22.751Z,17.18
2022-07-29T07:55:22.412Z,17.20
2022-07-29T07:56:22.429Z,17.20
2022-07-29T07:57:22.433Z,17.22
2022-07-29T07:58:22.476Z,17.26
2022-07-29T07:59:22.432Z,17.25
2022-07-29T08:00:23.028Z,17.28
2022-07-29T08:01:22.429Z,17.29
2022-07-29T08:02:22.446Z,17.29
2022-07-29T08:03:22.315Z,17.28
2022-07-29T08:04:27.286Z,17.29
2022-07-29T08:05:22.517Z,17.29
2022-07-29T08:06:22.324Z,17.28
2022-07-29T08:07:22.519Z,17.30
2022-07-29T08:08:22.355Z,17.30
2022-07-29T08:09:29.191Z,17.30
2022-07-29T08:10:22.280Z,17.30
2022-07-29T08:11:22.310Z,17.30
2022-07-29T08:12:22.278Z,17.33
2022-07-29T08:13:22.297Z,17.33
2022-07-29T08:14:22.351Z,17.36
2022-07-29T08:15:22.439Z,17.35
2022-07-29T08:16:22.551Z,17.32
2022-07-29T08:17:22.395Z,17.32
2022-07-29T08:18:22.434Z,17.30
2022-07-29T08:19:22.189Z,17.32
2022-07-29T08:20:22.401Z,17.32
2022-07-29T08:21:22.352Z,17.32
2022-07-29T08:22:22.158Z,17.33
2022-07-29T08:23:22.239Z,17.32
2022-07-29T08:24:22.195Z,17.32
2022-07-29T08:25:22.116Z,17.30
2022-07-29T08:26:22.069Z,17.30
2022-07-29T08:27:42.333Z,17.28
2022-07-29T08:28:25.711Z,17.22
2022-07-29T08:29:22.196Z,17.20
2022-07-29T08:30:22.430Z,17.18
2022-07-29T08:31:22.158Z,17.18
2022-07-29T08:32:37.190Z,17.18
2022-07-29T08:33:22.421Z,17.18
2022-07-29T08:34:27.811Z,17.18
2022-07-29T08:35:22.078Z,17.20
2022-07-29T08:36:22.296Z,17.18
2022-07-29T08:37:22.035Z,17.20
2022-07-29T08:38:22.110Z,17.23
2022-07-29T08:39:21.950Z,17.25
2022-07-29T08:40:30.607Z,17.28
2022-07-29T08:41:21.951Z,17.29
2022-07-29T08:42:21.995Z,17.29
2022-07-29T08:43:22.206Z,17.30
2022-07-29T08:44:22.350Z,17.30
2022-07-29T08:45:21.878Z,17.30
2022-07-29T08:46:21.931Z,17.30
2022-07-29T08:47:21.878Z,17.33
2022-07-29T08:48:21.931Z,17.36
2022-07-29T08:49:21.908Z,17.41
2022-07-29T08:50:21.876Z,17.43
2022-07-29T08:51:22.115Z,17.46
2022-07-29T08:52:21.956Z,17.47
2022-07-29T08:53:22.020Z,17.51
2022-07-29T08:54:21.920Z,17.53
2022-07-29T08:55:21.967Z,17.53
2022-07-29T08:56:21.793Z,17.51
2022-07-29T08:57:21.799Z,17.51
2022-07-29T08:58:24.637Z,17.50
2022-07-29T08:59:23.826Z,17.50
2022-07-29T09:00:23.068Z,17.50
2022-07-29T09:01:23.808Z,17.50
2022-07-29T09:02:21.864Z,17.50
2022-07-29T09:03:22.265Z,17.48
2022-07-29T09:04:21.793Z,17.47
2022-07-29T09:05:21.784Z,17.47
2022-07-29T09:06:21.906Z,17.50
2022-07-29T09:07:21.712Z,17.51
2022-07-29T09:08:22.052Z,17.51
2022-07-29T09:09:21.705Z,17.54
2022-07-29T09:10:22.098Z,17.54
2022-07-29T09:11:21.686Z,17.55
2022-07-29T09:12:28.770Z,17.59
2022-07-29T09:13:22.039Z,17.59
2022-07-29T09:14:21.630Z,17.62
2022-07-29T09:15:21.668Z,17.62
2022-07-29T09:16:43.689Z,17.64
2022-07-29T09:17:21.813Z,17.66
2022-07-29T09:18:30.817Z,17.66
2022-07-29T09:19:21.636Z,17.67
2022-07-29T09:20:21.593Z,17.66
2022-07-29T09:21:21.584Z,17.66
2022-07-29T09:22:21.641Z,17.66
2022-07-29T09:23:23.484Z,17.66
2022-07-29T09:24:21.484Z,17.66
2022-07-29T09:25:21.631Z,17.66
2022-07-29T09:26:21.585Z,17.66
2022-07-29T09:27:21.508Z,17.64
2022-07-29T09:28:21.545Z,17.64
2022-07-29T09:29:21.467Z,17.62
2022-07-29T09:30:25.556Z,17.62
2022-07-29T09:31:21.585Z,17.62
2022-07-29T09:32:21.555Z,17.59
2022-07-29T09:33:21.433Z,17.57
2022-07-29T09:34:21.497Z,17.59
2022-07-29T09:35:21.561Z,17.55
2022-07-29T09:36:21.425Z,17.55
2022-07-29T09:37:21.429Z,17.57
2022-07-29T09:38:21.407Z,17.62
2022-07-29T09:39:22.114Z,17.63
2022-07-29T09:40:21.620Z,17.64
2022-07-29T09:41:21.428Z,17.69
2022-07-29T09:42:21.526Z,17.70
2022-07-29T09:43:21.379Z,17.71
2022-07-29T09:44:21.347Z,17.73
2022-07-29T09:45:21.308Z,17.74
2022-07-29T09:46:21.415Z,17.78
2022-07-29T09:47:21.307Z,17.79
2022-07-29T09:48:21.266Z,17.84
2022-07-29T09:49:21.302Z,17.87
2022-07-29T09:50:21.269Z,17.89
2022-07-29T09:51:25.539Z,17.95
2022-07-29T09:52:21.303Z,17.97
2022-07-29T09:53:21.213Z,18.00
2022-07-29T09:54:21.265Z,18.02
2022-07-29T09:55:21.239Z,18.03
2022-07-29T09:56:21.240Z,18.06
2022-07-29T09:57:21.191Z,18.06
2022-07-29T09:58:21.283Z,18.07
2022-07-29T09:59:21.165Z,18.04
2022-07-29T10:00:21.150Z,18.02
2022-07-29T10:01:21.242Z,18.03
2022-07-29T10:02:23.483Z,18.00
2022-07-29T10:03:21.258Z,17.97
2022-07-29T10:04:21.232Z,17.94
2022-07-29T10:05:21.103Z,17.94
2022-07-29T10:06:21.089Z,17.92
2022-07-29T10:07:21.053Z,17.92
2022-07-29T10:08:21.068Z,17.94
2022-07-29T10:09:22.325Z,17.94
2022-07-29T10:10:21.146Z,17.95
2022-07-29T10:11:21.108Z,17.94
2022-07-29T10:12:21.166Z,17.97
2022-07-29T10:13:21.156Z,17.97
2022-07-29T10:14:21.025Z,18.00
2022-07-29T10:15:21.087Z,18.03
2022-07-29T10:16:21.497Z,18.06
2022-07-29T10:17:21.424Z,18.07
2022-07-29T10:18:21.061Z,18.10
2022-07-29T10:19:20.946Z,18.13
2022-07-29T10:20:20.965Z,18.17
2022-07-29T10:21:22.460Z,18.21
2022-07-29T10:22:43.617Z,18.18
2022-07-29T10:23:20.914Z,18.18
2022-07-29T10:24:20.948Z,18.21
2022-07-29T10:25:20.908Z,18.21
2022-07-29T10:26:20.967Z,18.22
2022-07-29T10:27:20.901Z,18.22
2022-07-29T10:28:20.990Z,18.25
2022-07-29T10:29:21.392Z,18.28
2022-07-29T10:30:20.906Z,18.31
2022-07-29T10:31:20.971Z,18.31
2022-07-29T10:32:20.906Z,18.31
2022-07-29T10:33:20.865Z,18.31
2022-07-29T10:34:20.822Z,18.33
2022-07-29T10:35:20.826Z,18.33
2022-07-29T10:36:20.831Z,18.37
2022-07-29T10:37:20.757Z,18.39
2022-07-29T10:38:20.829Z,18.46
2022-07-29T10:39:22.391Z,18.49
2022-07-29T10:40:20.784Z,18.55
2022-07-29T10:41:20.744Z,18.58
2022-07-29T10:42:29.614Z,18.65
2022-07-29T10:43:20.745Z,18.73
2022-07-29T10:44:22.835Z,18.80
2022-07-29T10:45:20.704Z,18.94
2022-07-29T10:46:22.260Z,18.99
2022-07-29T10:47:20.716Z,19.13
2022-07-29T10:48:20.629Z,19.28
2022-07-29T10:49:24.361Z,19.39
2022-07-29T10:50:20.671Z,19.53
2022-07-29T10:51:20.859Z,19.63
2022-07-29T10:52:20.722Z,19.75
2022-07-29T10:53:20.601Z,19.87
2022-07-29T10:54:20.599Z,19.97
2022-07-29T10:55:20.631Z,20.08
2022-07-29T10:56:20.557Z,20.16
2022-07-29T10:57:20.884Z,20.25
2022-07-29T10:58:20.624Z,20.34
2022-07-29T10:59:21.520Z,20.46
2022-07-29T11:00:20.546Z,20.56
2022-07-29T11:01:37.156Z,20.69
2022-07-29T11:02:41.141Z,20.84
2022-07-29T11:03:20.682Z,20.96
2022-07-29T11:04:20.590Z,21.11
2022-07-29T11:05:20.580Z,21.41
2022-07-29T11:06:26.284Z,21.88
2022-07-29T11:07:20.448Z,22.27
2022-07-29T11:08:21.051Z,22.67
2022-07-29T11:09:34.764Z,22.94
2022-07-29T11:10:20.518Z,23.15
2022-07-29T11:11:22.138Z,23.45
2022-07-29T11:12:20.434Z,23.79
2022-07-29T11:13:20.401Z,23.92
2022-07-29T11:14:26.635Z,24.13
2022-07-29T11:15:20.433Z,24.35
2022-07-29T11:16:21.352Z,24.35
2022-07-29T11:17:20.387Z,24.35
2022-07-29T11:18:20.325Z,24.45
2022-07-29T11:19:26.357Z,24.69
2022-07-29T11:20:20.734Z,24.95
2022-07-29T11:21:23.390Z,25.32
2022-07-29T11:22:20.345Z,25.53
2022-07-29T11:23:20.466Z,25.53
2022-07-29T11:24:29.059Z,25.47
2022-07-29T11:25:50.188Z,24.92
2022-07-29T11:26:20.390Z,23.97
2022-07-29T11:27:20.557Z,23.43
2022-07-29T11:28:23.119Z,23.05
2022-07-29T11:29:20.508Z,23.24
2022-07-29T11:30:20.390Z,23.49
2022-07-29T11:31:20.302Z,23.76
2022-07-29T11:32:22.585Z,24.10
2022-07-29T12:07:11.114Z,24.32
2022-07-29T12:07:20.430Z,22.96
2022-07-29T12:08:19.824Z,22.96
2022-07-29T12:09:19.787Z,22.93
2022-07-29T12:10:29.840Z,22.86
2022-07-29T12:11:20.386Z,22.65
2022-07-29T12:12:19.785Z,22.54
2022-07-29T12:13:19.752Z,22.52
2022-07-29T12:14:19.672Z,22.47
2022-07-29T12:15:20.336Z,22.38
2022-07-29T12:16:29.302Z,22.34
2022-07-29T12:17:19.705Z,22.35
2022-07-29T12:18:20.401Z,22.34
2022-07-29T12:19:19.635Z,22.35
2022-07-29T12:20:20.503Z,22.32
2022-07-29T12:21:19.677Z,22.29
2022-07-29T12:22:19.594Z,22.27
2022-07-29T12:23:19.643Z,22.17
2022-07-29T12:24:20.004Z,22.17
2022-07-29T12:25:34.989Z,22.17
2022-07-29T12:26:21.852Z,22.20
2022-07-29T12:27:29.462Z,22.20
2022-07-29T12:28:26.378Z,22.23
2022-07-29T12:29:20.069Z,22.27
2022-07-29T12:30:19.585Z,22.31
2022-07-29T12:31:43.165Z,22.34
2022-07-29T12:32:20.090Z,22.41
2022-07-29T12:33:19.722Z,22.47
2022-07-29T12:34:19.674Z,22.53
2022-07-29T12:35:19.525Z,22.57
2022-07-29T12:36:19.753Z,22.64
2022-07-29T12:37:19.522Z,22.71
2022-07-29T12:38:19.515Z,22.82
2022-07-29T12:39:19.475Z,22.84
2022-07-29T12:40:19.434Z,22.92
2022-07-29T12:41:19.563Z,22.97
2022-07-29T12:42:19.474Z,23.02
2022-07-29T12:43:19.528Z,23.01
2022-07-29T12:44:19.405Z,23.01
2022-07-29T12:45:19.604Z,22.92
2022-07-29T12:46:19.593Z,22.86
2022-07-29T12:47:19.691Z,22.83
2022-07-29T12:48:19.634Z,22.82
2022-07-29T12:49:19.480Z,22.75
2022-07-29T12:50:23.264Z,22.69
2022-07-29T12:51:19.361Z,22.65
2022-07-29T12:52:19.506Z,22.64
2022-07-29T12:53:19.344Z,22.57
2022-07-29T12:54:19.481Z,22.57
2022-07-29T12:55:19.278Z,22.53
2022-07-29T12:57:20.148Z,22.50
2022-07-29T12:58:19.371Z,22.52
2022-07-29T12:59:19.355Z,22.54
2022-07-29T13:00:19.386Z,22.54
2022-07-29T13:01:19.374Z,22.52
2022-07-29T13:02:19.357Z,22.54
2022-07-29T13:03:19.632Z,22.56
2022-07-29T13:04:19.307Z,22.59
2022-07-29T13:05:19.230Z,22.60
2022-07-29T13:06:19.308Z,22.67
2022-07-29T13:07:19.226Z,22.71
2022-07-29T13:08:21.922Z,22.78
2022-07-29T13:09:19.375Z,22.87
2022-07-29T13:10:19.192Z,22.96
2022-07-29T13:11:19.233Z,23.04
2022-07-29T13:12:19.231Z,23.09
2022-07-29T13:13:19.235Z,23.12
2022-07-29T13:14:19.125Z,23.27
2022-07-29T13:15:19.124Z,23.39
2022-07-29T13:16:19.225Z,23.53
2022-07-29T13:17:19.270Z,23.68
2022-07-29T13:18:19.586Z,23.86
2022-07-29T13:19:19.083Z,24.01
2022-07-29T13:20:19.054Z,24.13
2022-07-29T13:21:19.116Z,24.29
2022-07-29T13:22:19.084Z,24.44
2022-07-29T13:23:19.106Z,24.47
2022-07-29T13:24:20.001Z,24.42
2022-07-29T13:25:19.116Z,24.31
2022-07-29T13:26:19.106Z,24.26